PWSweather.com
Personal Weather Stations
Station Observations
MAKAWAOWX1
Up Country Maui, Makawao, HI 96768

Up Country MauiMakawao, HI 96768

Lat: 20.856944, Lon: -156.3149667

Elevation: 1500

Station Type: Davis Vantage Pro

Latest ConditionsUpdated 4:50:33 PM HST Monday, Sep 15, 2014
Currently Today's Max Today's Min Today's Average
Temperature 81.0°F27.2°C 84.7°F29.3°C 67.5°F19.7°C 75.2°F24.0°C
Dew Point 70.7°F21.5°C 72.9°F22.7°C 64.1°F17.8°C 69.4°F20.8°C
Winds 6.9 mph NE11.1 kmh NE 9.6 mph NE15.4 kmh NE - 3.6 mph 5.8 kmh
Wind Gusts 10.0 mph16.1 kmh 15.0 mph24.1 kmh - -
Humidity 71% 96% 63% 83%
Pressure 29.81 in1009.5 mb 29.88 in1011.9 mb 29.80 in1009.1 mb -
Precipitation - 0.71 in18.0 mm - -
Hour Temp Dew Point Humidity Winds Wind Gusts Pressure Precip Precip Rate Daily Precip Total
04:50 PM 81.0°F27.2°C 70.7°F21.5°C 71% 6.9 mph NE11.1 kmh NE 10.0 mph16.1 kmh 29.81 in1009.5 mb 0.00 in0.0 mm 0.00 in/hr0.0 mm/hr 0.71 in18.0 mm
04:40 PM 81.1°F27.3°C 70.8°F21.6°C 71% 7.2 mph NE11.6 kmh NE 11.0 mph17.7 kmh 29.81 in1009.5 mb 0.00 in0.0 mm 0.00 in/hr0.0 mm/hr 0.71 in18.0 mm
04:30 PM 81.8°F27.7°C 70.7°F21.5°C 69% 7.0 mph NE11.3 kmh NE 10.0 mph16.1 kmh 29.80 in1009.1 mb 0.00 in0.0 mm 0.00 in/hr0.0 mm/hr 0.71 in18.0 mm
04:20 PM 82.4°F28.0°C 71.2°F21.8°C 69% 9.4 mph NE15.1 kmh NE 15.0 mph24.1 kmh 29.80 in1009.1 mb 0.00 in0.0 mm 0.00 in/hr0.0 mm/hr 0.71 in18.0 mm
04:10 PM 82.6°F28.1°C 70.5°F21.4°C 67% 2.1 mph NE3.4 kmh NE 9.0 mph14.5 kmh 29.81 in1009.5 mb 0.00 in0.0 mm 0.00 in/hr0.0 mm/hr 0.71 in18.0 mm
04:00 PM 82.8°F28.2°C 69.8°F21.0°C 65% 5.5 mph NE8.9 kmh NE 11.0 mph17.7 kmh 29.80 in1009.1 mb 0.00 in0.0 mm 0.00 in/hr0.0 mm/hr 0.71 in18.0 mm
03:50 PM 82.8°F28.2°C 69.4°F20.8°C 64% 5.3 mph NE8.5 kmh NE 11.0 mph17.7 kmh 29.80 in1009.1 mb 0.00 in0.0 mm 0.00 in/hr0.0 mm/hr 0.71 in18.0 mm
03:40 PM 82.5°F28.1°C 69.5°F20.8°C 65% 4.9 mph NE7.9 kmh NE 9.0 mph14.5 kmh 29.80 in1009.1 mb 0.00 in0.0 mm 0.00 in/hr0.0 mm/hr 0.71 in18.0 mm
03:30 PM 81.5°F27.5°C 70.3°F21.3°C 69% 6.0 mph NE9.7 kmh NE 8.0 mph12.9 kmh 29.80 in1009.1 mb 0.00 in0.0 mm 0.00 in/hr0.0 mm/hr 0.71 in18.0 mm
03:20 PM 81.0°F27.2°C 71.1°F21.7°C 72% 7.7 mph NNE12.4 kmh NNE 11.0 mph17.7 kmh 29.81 in1009.5 mb 0.00 in0.0 mm 0.00 in/hr0.0 mm/hr 0.71 in18.0 mm
03:10 PM 81.2°F27.3°C 71.3°F21.8°C 72% 6.7 mph ENE10.8 kmh ENE 11.0 mph17.7 kmh 29.81 in1009.5 mb 0.00 in0.0 mm 0.00 in/hr0.0 mm/hr 0.71 in18.0 mm
03:00 PM 82.8°F28.2°C 72.0°F22.2°C 70% 5.1 mph NE8.2 kmh NE 7.0 mph11.3 kmh 29.82 in1009.8 mb 0.00 in0.0 mm 0.00 in/hr0.0 mm/hr 0.71 in18.0 mm
02:50 PM 83.5°F28.6°C 72.3°F22.4°C 69% 4.9 mph N7.9 kmh N 9.0 mph14.5 kmh 29.81 in1009.5 mb 0.00 in0.0 mm 0.00 in/hr0.0 mm/hr 0.71 in18.0 mm
02:40 PM 84.3°F29.1°C 71.7°F22.1°C 66% 8.3 mph ENE13.4 kmh ENE 10.0 mph16.1 kmh 29.81 in1009.5 mb 0.00 in0.0 mm 0.00 in/hr0.0 mm/hr 0.71 in18.0 mm
02:30 PM 84.0°F28.9°C 71.8°F22.1°C 67% 3.6 mph NNE5.8 kmh NNE 11.0 mph17.7 kmh 29.81 in1009.5 mb 0.00 in0.0 mm 0.00 in/hr0.0 mm/hr 0.71 in18.0 mm
02:20 PM 82.9°F28.3°C 71.3°F21.8°C 68% 6.6 mph NE10.6 kmh NE 7.0 mph11.3 kmh 29.82 in1009.8 mb 0.00 in0.0 mm 0.00 in/hr0.0 mm/hr 0.71 in18.0 mm
02:10 PM 83.4°F28.6°C 71.7°F22.1°C 68% 5.3 mph ENE8.5 kmh ENE 7.0 mph11.3 kmh 29.82 in1009.8 mb 0.00 in0.0 mm 0.00 in/hr0.0 mm/hr 0.71 in18.0 mm
02:00 PM 83.2°F28.4°C 71.5°F21.9°C 68% 3.1 mph ENE5.0 kmh ENE 9.0 mph14.5 kmh 29.82 in1009.8 mb 0.00 in0.0 mm 0.00 in/hr0.0 mm/hr 0.71 in18.0 mm
01:50 PM 83.9°F28.8°C 70.9°F21.6°C 65% 1.6 mph NE2.6 kmh NE 7.0 mph11.3 kmh 29.83 in1010.2 mb 0.00 in0.0 mm 0.00 in/hr0.0 mm/hr 0.71 in18.0 mm
01:40 PM 84.5°F29.2°C 71.9°F22.2°C 66% 3.5 mph N5.6 kmh N 11.0 mph17.7 kmh 29.83 in1010.2 mb 0.00 in0.0 mm 0.00 in/hr0.0 mm/hr 0.71 in18.0 mm
01:30 PM 84.6°F29.2°C 70.6°F21.4°C 63% 5.4 mph NE8.7 kmh NE 12.0 mph19.3 kmh 29.83 in1010.2 mb 0.00 in0.0 mm 0.00 in/hr0.0 mm/hr 0.71 in18.0 mm
01:20 PM 84.7°F29.3°C 70.7°F21.5°C 63% 3.3 mph N5.3 kmh N 8.0 mph12.9 kmh 29.83 in1010.2 mb 0.00 in0.0 mm 0.00 in/hr0.0 mm/hr 0.71 in18.0 mm
01:10 PM 83.8°F28.8°C 70.4°F21.3°C 64% 7.8 mph NE12.6 kmh NE 9.0 mph14.5 kmh 29.84 in1010.5 mb 0.00 in0.0 mm 0.00 in/hr0.0 mm/hr 0.71 in18.0 mm
01:00 PM 83.7°F28.7°C 69.7°F20.9°C 63% 9.6 mph NE15.4 kmh NE 12.0 mph19.3 kmh 29.84 in1010.5 mb 0.00 in0.0 mm 0.00 in/hr0.0 mm/hr 0.71 in18.0 mm
12:50 PM 83.8°F28.8°C 70.3°F21.3°C 64% 4.9 mph NE7.9 kmh NE 8.0 mph12.9 kmh 29.84 in1010.5 mb 0.00 in0.0 mm 0.00 in/hr0.0 mm/hr 0.71 in18.0 mm
12:40 PM 83.5°F28.6°C 71.4°F21.9°C 67% 4.6 mph E7.4 kmh E 10.0 mph16.1 kmh 29.84 in1010.5 mb 0.00 in0.0 mm 0.00 in/hr0.0 mm/hr 0.71 in18.0 mm
12:30 PM 83.4°F28.6°C 70.4°F21.3°C 65% 5.4 mph NE8.7 kmh NE 9.0 mph14.5 kmh 29.85 in1010.8 mb 0.00 in0.0 mm 0.00 in/hr0.0 mm/hr 0.71 in18.0 mm
12:20 PM 82.6°F28.1°C 71.8°F22.1°C 70% 6.5 mph NE10.5 kmh NE 15.0 mph24.1 kmh 29.84 in1010.5 mb 0.00 in0.0 mm 0.00 in/hr0.0 mm/hr 0.71 in18.0 mm
12:10 PM 81.8°F27.7°C 71.1°F21.7°C 70% 5.6 mph ENE9.0 kmh ENE 11.0 mph17.7 kmh 29.85 in1010.8 mb 0.00 in0.0 mm 0.00 in/hr0.0 mm/hr 0.71 in18.0 mm
12:00 PM 81.6°F27.6°C 71.7°F22.1°C 72% 6.0 mph NE9.7 kmh NE 11.0 mph17.7 kmh 29.85 in1010.8 mb 0.00 in0.0 mm 0.00 in/hr0.0 mm/hr 0.71 in18.0 mm
11:50 AM 80.7°F27.1°C 72.0°F22.2°C 75% 4.4 mph ENE7.1 kmh ENE 10.0 mph16.1 kmh 29.86 in1011.2 mb 0.00 in0.0 mm 0.00 in/hr0.0 mm/hr 0.71 in18.0 mm
11:40 AM 80.3°F26.8°C 71.6°F22.0°C 75% 6.5 mph NE10.5 kmh NE 13.0 mph20.9 kmh 29.86 in1011.2 mb 0.00 in0.0 mm 0.00 in/hr0.0 mm/hr 0.71 in18.0 mm
11:30 AM 80.0°F26.7°C 71.8°F22.1°C 76% 6.6 mph ENE10.6 kmh ENE 10.0 mph16.1 kmh 29.86 in1011.2 mb 0.00 in0.0 mm 0.00 in/hr0.0 mm/hr 0.71 in18.0 mm
11:20 AM 79.3°F26.3°C 71.5°F21.9°C 77% 9.2 mph NE14.8 kmh NE 11.0 mph17.7 kmh 29.86 in1011.2 mb 0.00 in0.0 mm 0.00 in/hr0.0 mm/hr 0.71 in18.0 mm
11:10 AM 80.1°F26.7°C 72.2°F22.3°C 77% 7.3 mph NE11.7 kmh NE 14.0 mph22.5 kmh 29.87 in1011.5 mb 0.00 in0.0 mm 0.00 in/hr0.0 mm/hr 0.71 in18.0 mm
11:00 AM 80.3°F26.8°C 72.8°F22.7°C 78% 4.6 mph NE7.4 kmh NE 6.0 mph9.7 kmh 29.87 in1011.5 mb 0.00 in0.0 mm 0.00 in/hr0.0 mm/hr 0.71 in18.0 mm
10:50 AM 80.8°F27.1°C 72.9°F22.7°C 77% 6.7 mph N10.8 kmh N 9.0 mph14.5 kmh 29.87 in1011.5 mb 0.00 in0.0 mm 0.00 in/hr0.0 mm/hr 0.71 in18.0 mm
10:40 AM 80.8°F27.1°C 72.1°F22.3°C 75% 3.1 mph NE5.0 kmh NE 10.0 mph16.1 kmh 29.87 in1011.5 mb 0.00 in0.0 mm 0.00 in/hr0.0 mm/hr 0.71 in18.0 mm
10:30 AM 80.3°F26.8°C 72.0°F22.2°C 76% 7.3 mph NE11.7 kmh NE 9.0 mph14.5 kmh 29.87 in1011.5 mb 0.00 in0.0 mm 0.00 in/hr0.0 mm/hr 0.71 in18.0 mm
10:20 AM 80.1°F26.7°C 72.2°F22.3°C 77% 5.2 mph NE8.4 kmh NE 7.0 mph11.3 kmh 29.87 in1011.5 mb 0.00 in0.0 mm 0.00 in/hr0.0 mm/hr 0.71 in18.0 mm
10:10 AM 79.4°F26.3°C 71.9°F22.2°C 78% 8.0 mph E12.9 kmh E 11.0 mph17.7 kmh 29.88 in1011.9 mb 0.00 in0.0 mm 0.00 in/hr0.0 mm/hr 0.71 in18.0 mm
10:00 AM 78.0°F25.6°C 71.4°F21.9°C 80% 8.5 mph ENE13.7 kmh ENE 10.0 mph16.1 kmh 29.88 in1011.9 mb 0.00 in0.0 mm 0.00 in/hr0.0 mm/hr 0.71 in18.0 mm
09:50 AM 77.4°F25.2°C 70.8°F21.6°C 80% 6.9 mph E11.1 kmh E 9.0 mph14.5 kmh 29.88 in1011.9 mb 0.00 in0.0 mm 0.00 in/hr0.0 mm/hr 0.71 in18.0 mm
09:40 AM 77.3°F25.2°C 70.7°F21.5°C 80% 6.3 mph NE10.1 kmh NE 12.0 mph19.3 kmh 29.88 in1011.9 mb 0.00 in0.0 mm 0.00 in/hr0.0 mm/hr 0.71 in18.0 mm
09:30 AM 75.9°F24.4°C 71.1°F21.7°C 85% 5.2 mph ENE8.4 kmh ENE 9.0 mph14.5 kmh 29.88 in1011.9 mb 0.00 in0.0 mm 0.00 in/hr0.0 mm/hr 0.71 in18.0 mm
09:20 AM 74.6°F23.7°C 71.1°F21.7°C 89% 6.3 mph E10.1 kmh E 9.0 mph14.5 kmh 29.88 in1011.9 mb 0.00 in0.0 mm 0.00 in/hr0.0 mm/hr 0.71 in18.0 mm
09:10 AM 74.2°F23.4°C 71.4°F21.9°C 91% 7.4 mph NE11.9 kmh NE 12.0 mph19.3 kmh 29.88 in1011.9 mb 0.00 in0.0 mm 0.00 in/hr0.0 mm/hr 0.71 in18.0 mm
09:00 AM 74.1°F23.4°C 71.9°F22.2°C 93% 4.1 mph NE6.6 kmh NE 8.0 mph12.9 kmh 29.87 in1011.5 mb 0.00 in0.0 mm 0.00 in/hr0.0 mm/hr 0.71 in18.0 mm
08:50 AM 73.1°F22.8°C 70.7°F21.5°C 92% 4.2 mph NE6.8 kmh NE 6.0 mph9.7 kmh 29.87 in1011.5 mb 0.00 in0.0 mm 0.00 in/hr0.0 mm/hr 0.71 in18.0 mm
08:40 AM 73.5°F23.1°C 71.1°F21.7°C 92% 5.1 mph NE8.2 kmh NE 8.0 mph12.9 kmh 29.87 in1011.5 mb 0.00 in0.0 mm 0.00 in/hr0.0 mm/hr 0.71 in18.0 mm
08:30 AM 73.7°F23.2°C 71.2°F21.8°C 92% 4.3 mph NE6.9 kmh NE 7.0 mph11.3 kmh 29.86 in1011.2 mb 0.00 in0.0 mm 0.00 in/hr0.0 mm/hr 0.71 in18.0 mm
08:20 AM 73.9°F23.3°C 71.4°F21.9°C 92% 4.5 mph ENE7.2 kmh ENE 9.0 mph14.5 kmh 29.86 in1011.2 mb 0.00 in0.0 mm 0.00 in/hr0.0 mm/hr 0.71 in18.0 mm
08:10 AM 73.7°F23.2°C 71.5°F21.9°C 93% 2.7 mph NNE4.3 kmh NNE 5.0 mph8.0 kmh 29.86 in1011.2 mb 0.00 in0.0 mm 0.00 in/hr0.0 mm/hr 0.71 in18.0 mm
08:00 AM 73.1°F22.8°C 71.3°F21.8°C 94% 2.9 mph NE4.7 kmh NE 7.0 mph11.3 kmh 29.86 in1011.2 mb 0.00 in0.0 mm 0.00 in/hr0.0 mm/hr 0.71 in18.0 mm
07:50 AM 72.2°F22.3°C 70.7°F21.5°C 95% 2.8 mph NE4.5 kmh NE 6.0 mph9.7 kmh 29.86 in1011.2 mb 0.00 in0.0 mm 0.00 in/hr0.0 mm/hr 0.71 in18.0 mm
07:40 AM 71.6°F22.0°C 70.4°F21.3°C 96% 4.2 mph NE6.8 kmh NE 7.0 mph11.3 kmh 29.86 in1011.2 mb 0.00 in0.0 mm 0.00 in/hr0.0 mm/hr 0.71 in18.0 mm
07:30 AM 71.0°F21.7°C 69.8°F21.0°C 96% 3.9 mph NE6.3 kmh NE 8.0 mph12.9 kmh 29.86 in1011.2 mb 0.00 in0.0 mm 0.00 in/hr0.0 mm/hr 0.71 in18.0 mm
07:20 AM 70.5°F21.4°C 69.3°F20.7°C 96% 0.7 mph NE1.1 kmh NE 2.0 mph3.2 kmh 29.86 in1011.2 mb 0.00 in0.0 mm 0.00 in/hr0.0 mm/hr 0.71 in18.0 mm
07:10 AM 70.1°F21.2°C 68.6°F20.3°C 95% Calm Calm -- 29.85 in1010.8 mb 0.00 in0.0 mm 0.00 in/hr0.0 mm/hr 0.71 in18.0 mm
07:00 AM 69.9°F21.1°C 68.4°F20.2°C 95% 1.7 mph NE2.7 kmh NE 5.0 mph8.0 kmh 29.85 in1010.8 mb 0.00 in0.0 mm 0.00 in/hr0.0 mm/hr 0.71 in18.0 mm
06:50 AM 69.7°F20.9°C 68.2°F20.1°C 95% 2.9 mph NE4.7 kmh NE 5.0 mph8.0 kmh 29.85 in1010.8 mb 0.00 in0.0 mm 0.00 in/hr0.0 mm/hr 0.71 in18.0 mm
06:40 AM 69.6°F20.9°C 68.1°F20.1°C 95% 3.3 mph NE5.3 kmh NE 5.0 mph8.0 kmh 29.85 in1010.8 mb 0.00 in0.0 mm 0.00 in/hr0.0 mm/hr 0.71 in18.0 mm
06:30 AM 69.4°F20.8°C 68.0°F20.0°C 95% 3.2 mph NE5.1 kmh NE 6.0 mph9.7 kmh 29.85 in1010.8 mb 0.00 in0.0 mm 0.00 in/hr0.0 mm/hr 0.71 in18.0 mm
06:20 AM 69.4°F20.8°C 67.9°F19.9°C 95% 0.6 mph NE1.0 kmh NE -- 29.85 in1010.8 mb 0.00 in0.0 mm 0.00 in/hr0.0 mm/hr 0.71 in18.0 mm
06:10 AM 69.4°F20.8°C 67.9°F19.9°C 95% 2.4 mph NE3.9 kmh NE 3.0 mph4.8 kmh 29.85 in1010.8 mb 0.00 in0.0 mm 0.00 in/hr0.0 mm/hr 0.71 in18.0 mm
06:00 AM 69.5°F20.8°C 68.0°F20.0°C 95% 2.2 mph NE3.5 kmh NE 3.0 mph4.8 kmh 29.84 in1010.5 mb 0.00 in0.0 mm 0.00 in/hr0.0 mm/hr 0.71 in18.0 mm
05:50 AM 69.5°F20.8°C 68.0°F20.0°C 95% 1.1 mph NE1.8 kmh NE 2.0 mph3.2 kmh 29.84 in1010.5 mb 0.00 in0.0 mm 0.00 in/hr0.0 mm/hr 0.71 in18.0 mm
05:40 AM 69.6°F20.9°C 68.1°F20.1°C 95% Calm Calm 2.0 mph3.2 kmh 29.84 in1010.5 mb 0.00 in0.0 mm 0.00 in/hr0.0 mm/hr 0.71 in18.0 mm
05:30 AM 69.7°F20.9°C 68.2°F20.1°C 95% 3.1 mph NE5.0 kmh NE 5.0 mph8.0 kmh 29.84 in1010.5 mb 0.00 in0.0 mm 0.00 in/hr0.0 mm/hr 0.71 in18.0 mm
05:20 AM 69.7°F20.9°C 68.2°F20.1°C 95% 1.7 mph NE2.7 kmh NE 3.0 mph4.8 kmh 29.83 in1010.2 mb 0.00 in0.0 mm 0.00 in/hr0.0 mm/hr 0.71 in18.0 mm
05:10 AM 69.6°F20.9°C 68.1°F20.1°C 95% 0.9 mph NE1.4 kmh NE 3.0 mph4.8 kmh 29.83 in1010.2 mb 0.00 in0.0 mm 0.00 in/hr0.0 mm/hr 0.71 in18.0 mm
05:00 AM 69.6°F20.9°C 68.1°F20.1°C 95% 0.1 mph NE0.2 kmh NE -- 29.83 in1010.2 mb 0.00 in0.0 mm 0.00 in/hr0.0 mm/hr 0.71 in18.0 mm
04:50 AM 69.6°F20.9°C 68.1°F20.1°C 95% Calm Calm 1.0 mph1.6 kmh 29.83 in1010.2 mb 0.02 in0.5 mm 0.12 in/hr3.0 mm/hr 0.71 in18.0 mm
04:40 AM 69.6°F20.9°C 68.1°F20.1°C 95% 0.9 mph NE1.4 kmh NE 3.0 mph4.8 kmh 29.83 in1010.2 mb 0.00 in0.0 mm 0.00 in/hr0.0 mm/hr 0.69 in17.5 mm
04:30 AM 69.6°F20.9°C 68.1°F20.1°C 95% 1.5 mph NE2.4 kmh NE 3.0 mph4.8 kmh 29.83 in1010.2 mb 0.00 in0.0 mm 0.00 in/hr0.0 mm/hr 0.69 in17.5 mm
04:20 AM 69.5°F20.8°C 68.0°F20.0°C 95% 3.3 mph NE5.3 kmh NE 3.0 mph4.8 kmh 29.83 in1010.2 mb 0.00 in0.0 mm 0.00 in/hr0.0 mm/hr 0.69 in17.5 mm
04:10 AM 69.5°F20.8°C 68.0°F20.0°C 95% 0.6 mph NE1.0 kmh NE 4.0 mph6.4 kmh 29.83 in1010.2 mb 0.00 in0.0 mm 0.00 in/hr0.0 mm/hr 0.69 in17.5 mm
04:00 AM 69.4°F20.8°C 67.9°F19.9°C 95% Calm Calm -- 29.83 in1010.2 mb 0.01 in0.3 mm 0.01 in/hr0.3 mm/hr 0.69 in17.5 mm
03:50 AM 69.3°F20.7°C 67.8°F19.9°C 95% Calm Calm -- 29.83 in1010.2 mb 0.01 in0.3 mm 0.06 in/hr1.5 mm/hr 0.68 in17.3 mm
03:40 AM 69.2°F20.7°C 67.4°F19.7°C 94% Calm Calm -- 29.83 in1010.2 mb 0.03 in0.8 mm 0.18 in/hr4.6 mm/hr 0.67 in17.0 mm
03:30 AM 69.3°F20.7°C 67.2°F19.6°C 93% 2.3 mph NE3.7 kmh NE 4.0 mph6.4 kmh 29.83 in1010.2 mb 0.04 in1.0 mm 0.24 in/hr6.1 mm/hr 0.65 in16.5 mm
03:20 AM 69.7°F20.9°C 67.9°F19.9°C 94% 0.6 mph NNE1.0 kmh NNE 3.0 mph4.8 kmh 29.83 in1010.2 mb 0.05 in1.3 mm 0.30 in/hr7.6 mm/hr 0.61 in15.5 mm
03:10 AM 69.8°F21.0°C 68.0°F20.0°C 94% Calm Calm -- 29.84 in1010.5 mb 0.07 in1.8 mm 0.42 in/hr10.7 mm/hr 0.56 in14.2 mm
03:00 AM 69.7°F20.9°C 67.9°F19.9°C 94% Calm Calm -- 29.84 in1010.5 mb 0.06 in1.5 mm 0.07 in/hr1.8 mm/hr 0.49 in12.4 mm
02:50 AM 69.7°F20.9°C 67.9°F19.9°C 94% Calm Calm -- 29.84 in1010.5 mb 0.07 in1.8 mm 0.42 in/hr10.7 mm/hr 0.44 in11.2 mm
02:40 AM 69.6°F20.9°C 67.5°F19.7°C 93% Calm Calm -- 29.84 in1010.5 mb 0.19 in4.8 mm 1.14 in/hr29.0 mm/hr 0.38 in9.7 mm
02:30 AM 69.5°F20.8°C 67.1°F19.5°C 92% 2.5 mph NNE4.0 kmh NNE 3.0 mph4.8 kmh 29.84 in1010.5 mb 0.18 in4.6 mm 1.08 in/hr27.4 mm/hr 0.21 in5.3 mm
02:20 AM 69.5°F20.8°C 66.8°F19.3°C 91% Calm Calm -- 29.83 in1010.2 mb 0.04 in1.0 mm 0.24 in/hr6.1 mm/hr 0.04 in1.0 mm
02:10 AM 69.4°F20.8°C 66.0°F18.9°C 89% 2.5 mph NNE4.0 kmh NNE 3.0 mph4.8 kmh 29.84 in1010.5 mb 0.00 in0.0 mm 0.00 in/hr0.0 mm/hr 0.00 in0.0 mm
02:00 AM 69.1°F20.6°C 65.7°F18.7°C 89% Calm Calm -- 29.84 in1010.5 mb 0.00 in0.0 mm 0.00 in/hr0.0 mm/hr 0.00 in0.0 mm
01:50 AM 68.9°F20.5°C 65.8°F18.8°C 90% 2.1 mph NNE3.4 kmh NNE 3.0 mph4.8 kmh 29.84 in1010.5 mb 0.00 in0.0 mm 0.00 in/hr0.0 mm/hr 0.00 in0.0 mm
01:40 AM 68.7°F20.4°C 65.6°F18.7°C 90% Calm Calm -- 29.84 in1010.5 mb 0.00 in0.0 mm 0.00 in/hr0.0 mm/hr 0.00 in0.0 mm
01:30 AM 68.5°F20.3°C 65.4°F18.6°C 90% Calm Calm -- 29.84 in1010.5 mb 0.00 in0.0 mm 0.00 in/hr0.0 mm/hr 0.00 in0.0 mm
01:20 AM 68.3°F20.2°C 65.3°F18.5°C 90% 0.1 mph NNE0.2 kmh NNE -- 29.84 in1010.5 mb 0.00 in0.0 mm 0.00 in/hr0.0 mm/hr 0.00 in0.0 mm
01:10 AM 68.3°F20.2°C 64.9°F18.3°C 89% Calm Calm -- 29.85 in1010.8 mb 0.00 in0.0 mm 0.00 in/hr0.0 mm/hr 0.00 in0.0 mm
01:00 AM 68.2°F20.1°C 65.1°F18.4°C 90% Calm Calm 1.0 mph1.6 kmh 29.84 in1010.5 mb 0.00 in0.0 mm 0.00 in/hr0.0 mm/hr 0.00 in0.0 mm
12:50 AM 68.0°F20.0°C 64.9°F18.3°C 90% Calm Calm -- 29.84 in1010.5 mb 0.00 in0.0 mm 0.00 in/hr0.0 mm/hr 0.00 in0.0 mm
12:40 AM 67.8°F19.9°C 64.8°F18.2°C 90% 0.5 mph NNE0.8 kmh NNE -- 29.85 in1010.8 mb 0.00 in0.0 mm 0.00 in/hr0.0 mm/hr 0.00 in0.0 mm
12:30 AM 67.7°F19.8°C 64.7°F18.2°C 90% 0.2 mph NNE0.3 kmh NNE -- 29.85 in1010.8 mb 0.00 in0.0 mm 0.00 in/hr0.0 mm/hr 0.00 in0.0 mm
12:20 AM 67.6°F19.8°C 64.2°F17.9°C 89% 2.1 mph NNE3.4 kmh NNE 3.0 mph4.8 kmh 29.85 in1010.8 mb 0.00 in0.0 mm 0.00 in/hr0.0 mm/hr 0.00 in0.0 mm
12:10 AM 67.5°F19.7°C 64.1°F17.8°C 89% 2.1 mph NNE3.4 kmh NNE 3.0 mph4.8 kmh 29.85 in1010.8 mb 0.00 in0.0 mm 0.00 in/hr0.0 mm/hr 0.00 in0.0 mm
12:00 AM 67.5°F19.7°C 64.1°F17.8°C 89% 2.4 mph NNE3.9 kmh NNE 3.0 mph4.8 kmh 29.85 in1010.8 mb 0.00 in0.0 mm 0.00 in/hr0.0 mm/hr 0.00 in0.0 mm